Terminal Aerodrome Forecast
Issued by NWS

Home | Current Version | Previous Version | Text Only | Print | Product List | Glossary On
Versions: 1 2 3 4 5 6 7 8 9 10 11 12 13 14 15 16 17 18 19 20
000
FTUS41 KPBZ 021752
TAFBVI
TAF
KBVI 021752Z 0218/0318 03005KT P6SM OVC015
     FM021900 06005KT P6SM BKN025
     FM030100 10005KT P6SM SCT020 BKN035
     FM030700 05006KT P6SM BKN009
     FM031400 11007KT P6SM BKN025=

USA.gov is the U.S. government's official web portal to all federal, state and local government web resources and services.